Terminal Aerodrome Forecast
Issued by NWS

Home | Current Version | Previous Version | Text Only | Print | Product List | Glossary On
Versions: 1 2 3 4 5 6 7 8 9 10 11 12 13 14 15 16 17
000
FTUS44 KCRP 181707 AAA
TAFLRD
TAF AMD
KLRD 181707Z 1817/1912 VRB05KT 3SM -RA BR OVC004
      TEMPO 1817/1821 1SM -SHRA BR OVC002
     FM190000 06004KT 4SM BR OVC004
     FM190600 VRB03KT 2SM -RA BR OVC003=

USA.gov is the U.S. government's official web portal to all federal, state and local government web resources and services.